Time;durP1;ratioP1;P1;durP2;ratioP2;P2;SDS_P1;SDS_P2;PMS_P1;PMS_P2;Temp;Humidity;BMP_temperature;BMP_pressure;BME280_temperature;BME280_humidity;BME280_pressure;Samples;Min_cycle;Max_cycle;Signal;HPM_P1;HPM_P2
2023/12/07 00:00:17;;;;;;;21.40;8.30;;;-7.30;99.90;;;;;;4924828;29;20192;-93
2023/12/07 00:02:44;;;;;;;25.42;9.30;;;-7.30;99.90;;;;;;4940366;29;20193;-94
2023/12/07 00:05:12;;;;;;;27.65;10.07;;;-7.20;99.90;;;;;;4924670;29;20811;-93
2023/12/07 00:07:39;;;;;;;26.08;9.65;;;-7.40;99.90;;;;;;4924553;29;20589;-92
2023/12/07 00:10:07;;;;;;;27.45;10.45;;;-7.30;99.90;;;;;;4924650;29;20207;-93
2023/12/07 00:12:35;;;;;;;25.85;11.60;;;-7.20;99.90;;;;;;4924912;29;20279;-92
2023/12/07 00:15:02;;;;;;;31.55;10.35;;;-7.30;99.90;;;;;;4924760;29;20211;-93
2023/12/07 00:17:30;;;;;;;25.75;10.30;;;-7.20;99.90;;;;;;4940302;28;20736;-92
2023/12/07 00:19:57;;;;;;;28.25;11.45;;;-7.30;99.90;;;;;;4956795;28;20208;-93
2023/12/07 00:22:26;;;;;;;28.27;11.52;;;-7.30;99.90;;;;;;4959931;28;20196;-93
2023/12/07 00:24:54;;;;;;;25.80;9.82;;;-7.20;99.90;;;;;;4943873;28;20293;-92
2023/12/07 00:27:21;;;;;;;28.40;10.68;;;-7.20;99.90;;;;;;4959337;28;20503;-93
2023/12/07 00:29:49;;;;;;;26.95;11.00;;;-7.40;99.90;;;;;;4972071;28;20208;-92
2023/12/07 00:32:17;;;;;;;28.67;10.18;;;-7.30;99.90;;;;;;4939461;29;20201;-92
2023/12/07 00:34:44;;;;;;;24.88;10.00;;;-7.20;99.90;;;;;;4955538;29;20204;-93
2023/12/07 00:37:13;;;;;;;24.95;9.57;;;-7.10;99.90;;;;;;4940000;29;20201;-93
2023/12/07 00:39:41;;;;;;;26.40;9.98;;;-7.20;99.90;;;;;;4955258;28;20753;-95
2023/12/07 00:42:09;;;;;;;26.67;10.25;;;-7.10;99.90;;;;;;4920460;29;20613;-94
2023/12/07 00:44:42;;;;;;;23.15;8.55;;;-7.20;99.90;;;;;;4936385;29;20189;-93
2023/12/07 00:47:10;;;;;;;29.23;9.52;;;-7.30;99.90;;;;;;4920265;29;20197;-93
2023/12/07 00:49:41;;;;;;;22.90;10.40;;;-7.30;99.90;;;;;;4952621;28;20245;-93
2023/12/07 00:52:09;;;;;;;29.80;11.00;;;-7.20;99.90;;;;;;4920513;29;20193;-94
2023/12/07 00:54:36;;;;;;;22.35;9.88;;;-7.30;99.90;;;;;;4920562;29;20289;-93
2023/12/07 00:57:04;;;;;;;29.75;12.60;;;-7.20;99.90;;;;;;4936133;29;20292;-93
2023/12/07 00:59:33;;;;;;;28.38;12.52;;;-7.20;99.90;;;;;;4920529;29;20220;-93
2023/12/07 01:02:02;;;;;;;25.92;10.63;;;-7.20;99.90;;;;;;4951915;29;20197;-92
2023/12/07 01:04:29;;;;;;;27.15;10.23;;;-7.20;99.90;;;;;;4920448;29;20185;-94
2023/12/07 01:06:57;;;;;;;28.25;10.77;;;-7.20;99.90;;;;;;4920493;29;20194;-93
2023/12/07 01:09:26;;;;;;;24.35;9.38;;;-7.30;99.90;;;;;;4920462;29;20201;-93
2023/12/07 01:11:53;;;;;;;29.23;10.27;;;-7.20;99.90;;;;;;4920253;29;20201;-93
2023/12/07 01:14:21;;;;;;;26.33;10.68;;;-7.30;99.90;;;;;;4951944;29;20193;-94
2023/12/07 01:16:48;;;;;;;27.20;9.93;;;-7.20;99.90;;;;;;4920025;29;20665;-92
2023/12/07 01:19:15;;;;;;;30.42;10.55;;;-7.20;99.90;;;;;;4951211;28;20217;-93
2023/12/07 01:21:43;;;;;;;28.48;9.75;;;-7.20;99.90;;;;;;4919837;29;20221;-93
2023/12/07 01:24:11;;;;;;;25.73;8.95;;;-7.30;99.90;;;;;;4951437;28;20193;-92
2023/12/07 01:26:43;;;;;;;27.40;10.43;;;-7.30;99.90;;;;;;4920243;29;20651;-93
2023/12/07 01:29:11;;;;;;;26.77;9.77;;;-7.20;99.90;;;;;;4920156;29;20268;-93
2023/12/07 01:31:38;;;;;;;27.90;9.75;;;-7.20;99.90;;;;;;4951271;28;20597;-93
2023/12/07 01:34:06;;;;;;;25.58;9.35;;;-7.20;99.90;;;;;;4919666;29;20208;-94
2023/12/07 01:36:33;;;;;;;24.65;10.63;;;-7.10;99.90;;;;;;4919689;29;20193;-94
2023/12/07 01:39:01;;;;;;;26.88;10.75;;;-7.10;99.90;;;;;;4951408;29;20213;-93
2023/12/07 01:41:29;;;;;;;27.25;10.27;;;-7.30;99.90;;;;;;4934984;29;20240;-93
2023/12/07 01:43:56;;;;;;;26.80;10.25;;;-7.20;99.90;;;;;;4935213;29;20283;-93
2023/12/07 01:46:24;;;;;;;31.63;10.43;;;-7.20;99.90;;;;;;4919484;29;20564;-94
2023/12/07 01:48:52;;;;;;;23.27;9.45;;;-7.10;99.90;;;;;;4919423;29;20201;-94
2023/12/07 01:51:20;;;;;;;24.00;10.68;;;-7.10;99.90;;;;;;4919611;29;20208;-94
2023/12/07 01:53:48;;;;;;;33.67;12.60;;;-6.90;99.90;;;;;;4935261;29;20207;-94
2023/12/07 01:56:16;;;;;;;30.13;11.70;;;-7.10;99.90;;;;;;4935399;29;20204;-95
2023/12/07 01:58:44;;;;;;;30.02;10.63;;;-7.00;99.90;;;;;;4933958;29;20217;-94
2023/12/07 02:01:12;;;;;;;25.38;9.57;;;-7.10;99.90;;;;;;4919127;29;20683;-93
2023/12/07 02:03:40;;;;;;;26.50;10.15;;;-7.10;99.90;;;;;;4919045;29;20197;-93
2023/12/07 02:06:08;;;;;;;28.88;11.70;;;-7.20;99.90;;;;;;4935141;29;20759;-93
2023/12/07 02:08:40;;;;;;;28.58;10.38;;;-7.10;99.90;;;;;;4919235;29;20194;-94
2023/12/07 02:11:10;;;;;;;29.42;10.73;;;-7.10;99.90;;;;;;4934904;29;20185;-93
2023/12/07 02:13:39;;;;;;;25.77;8.93;;;-7.10;99.90;;;;;;4934529;29;20201;-95
2023/12/07 02:16:17;;;;;;;26.10;10.00;;;-7.20;99.90;;;;;;4934876;29;20675;-92
2023/12/07 02:18:55;;;;;;;28.17;10.25;;;-7.20;99.90;;;;;;4934415;29;20299;-92
2023/12/07 02:22:05;;;;;;;32.53;11.18;;;-7.10;99.90;;;;;;4935005;29;20190;-93
2023/12/07 02:24:37;;;;;;;24.65;9.50;;;-7.10;99.90;;;;;;4934708;29;20644;-93
2023/12/07 02:27:05;;;;;;;25.88;10.27;;;-7.20;99.90;;;;;;4935092;29;20181;-92
2023/12/07 02:29:32;;;;;;;27.83;12.27;;;-7.30;99.90;;;;;;4918718;29;20197;-93
2023/12/07 02:32:00;;;;;;;28.60;11.30;;;-7.30;99.90;;;;;;4918778;29;20202;-93
2023/12/07 02:34:27;;;;;;;23.55;8.77;;;-7.40;99.90;;;;;;4918626;29;20292;-93
2023/12/07 02:36:58;;;;;;;29.85;10.15;;;-7.30;99.90;;;;;;4918871;29;20664;-95
2023/12/07 02:39:26;;;;;;;25.23;9.82;;;-7.20;99.90;;;;;;4934195;29;20306;-95
2023/12/07 02:41:55;;;;;;;23.08;9.70;;;-7.10;99.90;;;;;;4918241;29;20726;-96
2023/12/07 02:44:22;;;;;;;26.25;10.45;;;-7.30;99.90;;;;;;4949631;29;20188;-93
2023/12/07 02:46:50;;;;;;;25.95;11.82;;;-7.30;99.90;;;;;;4918824;29;20685;-92
2023/12/07 02:49:17;;;;;;;26.48;9.60;;;-7.30;99.90;;;;;;4934842;29;20747;-93
2023/12/07 02:51:45;;;;;;;28.13;9.45;;;-7.30;99.90;;;;;;4918796;29;20193;-94
2023/12/07 02:54:13;;;;;;;23.63;9.38;;;-7.20;99.90;;;;;;4918405;29;20565;-93
2023/12/07 02:56:40;;;;;;;24.47;9.57;;;-7.20;99.90;;;;;;4922329;29;20193;-95
2023/12/07 02:59:08;;;;;;;28.65;9.35;;;-7.30;99.90;;;;;;4953609;28;20216;-93
2023/12/07 03:01:36;;;;;;;25.73;10.02;;;-7.30;99.90;;;;;;4953666;29;20651;-93
2023/12/07 03:04:03;;;;;;;26.00;10.07;;;-7.20;99.90;;;;;;4953929;28;20196;-95
2023/12/07 03:06:31;;;;;;;34.13;11.63;;;-7.40;99.90;;;;;;4953273;28;20276;-93
2023/12/07 03:08:59;;;;;;;25.20;10.40;;;-7.40;99.90;;;;;;4952952;28;20200;-93
2023/12/07 03:11:26;;;;;;;27.38;9.82;;;-7.60;99.90;;;;;;4953143;28;20646;-95
2023/12/07 03:13:53;;;;;;;25.02;10.15;;;-7.60;99.90;;;;;;4952670;28;20192;-95
2023/12/07 03:16:21;;;;;;;30.27;10.43;;;-7.50;99.90;;;;;;4952820;29;20189;-95
2023/12/07 03:18:48;;;;;;;26.60;10.48;;;-7.40;99.90;;;;;;4952820;28;20200;-94
2023/12/07 03:21:16;;;;;;;24.50;9.48;;;-7.20;99.90;;;;;;4952881;29;20807;-95
2023/12/07 03:23:44;;;;;;;24.27;9.75;;;-7.40;99.90;;;;;;4949428;29;20579;-95
2023/12/07 03:26:11;;;;;;;27.08;9.55;;;-7.50;99.90;;;;;;4933810;29;20185;-95
2023/12/07 03:28:38;;;;;;;24.90;10.10;;;-7.30;99.90;;;;;;4917840;29;20185;-94
2023/12/07 03:31:06;;;;;;;27.90;10.15;;;-7.20;99.90;;;;;;4918033;29;20198;-92
2023/12/07 03:33:34;;;;;;;27.88;10.93;;;-7.30;99.90;;;;;;4933918;29;20201;-93
2023/12/07 03:36:02;;;;;;;24.55;9.73;;;-7.30;99.90;;;;;;4933904;29;20196;-92
2023/12/07 03:38:30;;;;;;;27.15;10.82;;;-7.30;99.90;;;;;;4917818;29;20205;-94
2023/12/07 03:40:57;;;;;;;27.80;11.65;;;-7.30;99.90;;;;;;4933015;29;20704;-92
2023/12/07 03:43:25;;;;;;;34.35;11.77;;;-7.30;99.90;;;;;;4933368;29;20668;-95
2023/12/07 03:45:53;;;;;;;28.85;11.05;;;-7.30;99.90;;;;;;4917520;29;20200;-94
2023/12/07 03:48:20;;;;;;;31.65;10.68;;;-7.20;99.90;;;;;;4917817;29;20197;-95
2023/12/07 03:50:48;;;;;;;27.60;10.00;;;-7.30;99.90;;;;;;4917434;29;20197;-95
2023/12/07 03:53:15;;;;;;;33.33;11.20;;;-7.20;99.90;;;;;;4933483;29;20212;-95
2023/12/07 03:55:43;;;;;;;29.08;11.82;;;-7.30;99.90;;;;;;4933052;29;20205;-94
2023/12/07 03:58:13;;;;;;;34.80;11.15;;;-7.20;99.90;;;;;;4933206;29;20241;-94
2023/12/07 04:00:41;;;;;;;29.58;10.65;;;-7.30;99.90;;;;;;4932995;29;20217;-95
2023/12/07 04:03:08;;;;;;;31.42;11.95;;;-7.50;99.90;;;;;;4949068;29;20201;-93
2023/12/07 04:05:36;;;;;;;29.92;13.68;;;-7.40;99.90;;;;;;4944701;28;20212;-94
2023/12/07 04:08:05;;;;;;;27.75;11.48;;;-7.20;99.90;;;;;;4936478;29;20668;-95
2023/12/07 04:10:32;;;;;;;33.42;15.55;;;-7.20;99.90;;;;;;4952495;28;20373;-93
2023/12/07 04:12:59;;;;;;;31.57;12.67;;;-7.20;99.90;;;;;;4936363;29;20201;-95
2023/12/07 04:15:27;;;;;;;36.17;11.40;;;-7.20;99.90;;;;;;4936288;29;20197;-95
2023/12/07 04:17:54;;;;;;;27.42;10.82;;;-7.30;99.90;;;;;;4936467;29;21009;-95
2023/12/07 04:20:22;;;;;;;33.28;14.32;;;-7.40;99.90;;;;;;4952174;28;20232;-95
2023/12/07 04:22:49;;;;;;;35.42;15.38;;;-7.40;99.90;;;;;;4939767;29;20196;-96
2023/12/07 04:25:17;;;;;;;29.33;11.68;;;-7.40;99.90;;;;;;4939867;29;20232;-95
2023/12/07 04:27:44;;;;;;;30.08;11.80;;;-7.40;99.90;;;;;;4940000;29;20193;-95
2023/12/07 04:30:12;;;;;;;28.25;11.73;;;-7.30;99.90;;;;;;4939647;29;20203;-94
2023/12/07 04:32:39;;;;;;;29.85;11.85;;;-7.40;99.90;;;;;;4955747;29;20193;-93
2023/12/07 04:35:08;;;;;;;31.60;11.75;;;-7.40;99.90;;;;;;4940104;29;20653;-94
2023/12/07 04:37:36;;;;;;;32.55;11.00;;;-7.30;99.90;;;;;;4955868;29;20232;-94
2023/12/07 04:40:04;;;;;;;28.58;12.15;;;-7.30;99.90;;;;;;4939552;29;20240;-95
2023/12/07 04:42:32;;;;;;;28.92;11.73;;;-7.20;99.90;;;;;;4940273;29;20687;-96
2023/12/07 04:44:59;;;;;;;32.80;12.00;;;-7.20;99.90;;;;;;4941680;29;20196;-95
2023/12/07 04:47:27;;;;;;;32.78;12.40;;;-7.30;99.90;;;;;;4942185;29;20211;-94
2023/12/07 04:49:55;;;;;;;34.38;12.80;;;-7.10;99.90;;;;;;4941546;29;20197;-93
2023/12/07 04:52:22;;;;;;;28.58;12.20;;;-7.20;99.90;;;;;;4941386;29;20674;-95
2023/12/07 04:54:50;;;;;;;33.30;12.27;;;-7.20;99.90;;;;;;4941144;29;20200;-94
2023/12/07 04:57:18;;;;;;;27.33;11.00;;;-7.40;99.90;;;;;;4941686;29;20655;-95
2023/12/07 04:59:46;;;;;;;28.70;11.32;;;-7.40;99.90;;;;;;4941352;29;20236;-95
2023/12/07 05:02:17;;;;;;;30.33;11.20;;;-7.40;99.90;;;;;;4957363;29;20201;-94
2023/12/07 05:04:45;;;;;;;29.65;12.75;;;-7.30;99.90;;;;;;4941577;29;20193;-94
2023/12/07 05:07:14;;;;;;;31.52;12.40;;;-7.20;99.90;;;;;;4957018;29;20287;-94
2023/12/07 05:09:41;;;;;;;33.58;11.60;;;-7.30;99.90;;;;;;4956990;29;20196;-96
2023/12/07 05:12:09;;;;;;;24.40;10.43;;;-7.40;99.90;;;;;;4937955;29;20284;-95
2023/12/07 05:14:36;;;;;;;30.58;10.90;;;-7.30;99.90;;;;;;4937858;29;20221;-94
2023/12/07 05:17:05;;;;;;;32.88;14.23;;;-7.20;99.90;;;;;;4943007;28;20411;-95
2023/12/07 05:19:32;;;;;;;28.13;11.10;;;-7.20;99.90;;;;;;4972975;28;20276;-94
2023/12/07 05:22:00;;;;;;;25.40;9.57;;;-7.30;99.90;;;;;;4972697;28;20208;-94
2023/12/07 05:24:28;;;;;;;25.52;11.45;;;-7.40;99.90;;;;;;4957591;28;20192;-94
2023/12/07 05:26:55;;;;;;;36.10;15.52;;;-7.30;99.90;;;;;;4957358;28;20706;-95
2023/12/07 05:29:23;;;;;;;30.13;11.77;;;-7.40;99.90;;;;;;4946453;29;20244;-92
2023/12/07 05:31:50;;;;;;;27.85;10.57;;;-7.50;99.90;;;;;;4954049;29;20190;-94
2023/12/07 05:34:18;;;;;;;30.25;11.35;;;-7.60;99.90;;;;;;4953464;29;20194;-94
2023/12/07 05:36:47;;;;;;;31.33;11.32;;;-7.50;99.90;;;;;;4953592;29;20648;-94
2023/12/07 05:39:17;;;;;;;24.48;9.60;;;-7.50;99.90;;;;;;4953418;29;20197;-95
2023/12/07 05:41:46;;;;;;;34.15;11.77;;;-7.40;99.90;;;;;;4952494;29;20241;-94
2023/12/07 05:44:14;;;;;;;25.40;10.52;;;-7.30;99.90;;;;;;4941857;28;20344;-94
2023/12/07 05:46:44;;;;;;;28.77;11.65;;;-7.30;99.90;;;;;;4953194;29;20221;-94
2023/12/07 05:49:11;;;;;;;27.70;11.00;;;-7.20;99.90;;;;;;4921747;29;20286;-95
2023/12/07 05:51:39;;;;;;;27.60;11.15;;;-7.30;99.90;;;;;;4921427;29;20220;-96
2023/12/07 05:54:07;;;;;;;32.30;10.45;;;-7.40;99.90;;;;;;4937213;29;20240;-94
2023/12/07 05:56:34;;;;;;;26.92;10.80;;;-7.30;99.90;;;;;;4921235;29;20256;-94
2023/12/07 05:59:02;;;;;;;32.95;11.52;;;-7.30;99.90;;;;;;4937139;29;20627;-94
2023/12/07 06:01:30;;;;;;;27.80;10.80;;;-7.20;99.90;;;;;;4937108;29;20260;-96
2023/12/07 06:03:58;;;;;;;25.65;11.05;;;-7.20;99.90;;;;;;4939958;29;20201;-94
2023/12/07 06:06:25;;;;;;;30.05;11.52;;;-7.20;99.90;;;;;;4937057;29;20201;-95
2023/12/07 06:08:53;;;;;;;29.30;11.18;;;-7.20;99.90;;;;;;4936775;29;20189;-95
2023/12/07 06:11:21;;;;;;;26.10;11.00;;;-7.20;99.90;;;;;;4920852;29;20197;-94
2023/12/07 06:13:48;;;;;;;24.08;10.95;;;-7.10;99.90;;;;;;4936821;29;20197;-94
2023/12/07 06:16:17;;;;;;;34.13;11.25;;;-7.00;99.90;;;;;;4920909;29;20194;-94
2023/12/07 06:18:45;;;;;;;28.63;11.13;;;-6.90;99.90;;;;;;4952438;29;20197;-94
2023/12/07 06:21:14;;;;;;;34.63;10.88;;;-6.90;99.90;;;;;;4931475;29;20213;-94
2023/12/07 06:23:41;;;;;;;26.60;10.30;;;-7.00;99.90;;;;;;4952671;29;20201;-94
2023/12/07 06:26:09;;;;;;;25.88;10.27;;;-7.10;99.90;;;;;;4952712;28;20181;-93
2023/12/07 06:28:36;;;;;;;23.77;10.50;;;-7.20;99.90;;;;;;4952814;28;20204;-94
2023/12/07 06:31:08;;;;;;;28.60;10.90;;;-7.30;99.90;;;;;;4952190;28;20189;-94
2023/12/07 06:33:36;;;;;;;28.02;10.70;;;-7.20;99.90;;;;;;4952177;29;20197;-94
2023/12/07 06:36:04;;;;;;;28.77;10.88;;;-7.20;99.90;;;;;;4936568;29;20201;-95
2023/12/07 06:38:31;;;;;;;26.35;11.43;;;-7.20;99.90;;;;;;4936373;29;20204;-94
2023/12/07 06:40:59;;;;;;;27.33;11.07;;;-7.20;99.90;;;;;;4953940;28;20316;-95
2023/12/07 06:43:26;;;;;;;24.40;10.30;;;-7.30;99.90;;;;;;4955552;28;20188;-95
2023/12/07 06:45:54;;;;;;;24.10;10.05;;;-7.20;99.90;;;;;;4955376;28;20194;-95
2023/12/07 06:48:22;;;;;;;31.42;12.40;;;-7.10;99.90;;;;;;4971395;28;20193;-94
2023/12/07 06:50:49;;;;;;;32.95;11.95;;;-7.20;99.90;;;;;;4970906;28;20184;-93
2023/12/07 06:53:18;;;;;;;23.88;9.38;;;-7.20;99.90;;;;;;4971398;28;20212;-95
2023/12/07 06:55:46;;;;;;;29.48;11.85;;;-7.00;99.90;;;;;;4955274;28;20196;-94
2023/12/07 06:58:13;;;;;;;26.75;11.38;;;-7.10;99.90;;;;;;4939518;29;20184;-95
2023/12/07 07:00:41;;;;;;;27.00;9.50;;;-7.20;99.90;;;;;;4955400;28;20219;-95
2023/12/07 07:03:08;;;;;;;25.08;10.05;;;-7.20;99.90;;;;;;4971134;28;20193;-94
2023/12/07 07:05:36;;;;;;;28.67;11.10;;;-7.10;99.90;;;;;;4955249;29;20682;-94
2023/12/07 07:08:04;;;;;;;28.48;12.30;;;-7.10;99.90;;;;;;4971043;28;20216;-95
2023/12/07 07:10:31;;;;;;;29.77;11.38;;;-7.20;99.90;;;;;;4955189;28;20197;-94
2023/12/07 07:13:04;;;;;;;31.02;10.82;;;-7.20;99.90;;;;;;4970693;28;20240;-95
2023/12/07 07:15:35;;;;;;;33.42;12.88;;;-7.20;99.90;;;;;;4970648;28;20199;-95
2023/12/07 07:18:02;;;;;;;28.27;11.65;;;-7.10;99.90;;;;;;4970884;28;20192;-95
2023/12/07 07:20:30;;;;;;;25.92;11.13;;;-7.20;99.90;;;;;;4970844;28;20361;-94
2023/12/07 07:22:58;;;;;;;28.17;11.52;;;-7.20;99.90;;;;;;4970462;28;20193;-95
2023/12/07 07:25:25;;;;;;;32.63;14.77;;;-7.10;99.90;;;;;;4954914;29;20224;-95
2023/12/07 07:27:54;;;;;;;32.65;12.15;;;-7.00;99.90;;;;;;4954852;29;20199;-94
2023/12/07 07:30:22;;;;;;;36.58;13.52;;;-7.10;99.90;;;;;;4939177;29;20277;-94
2023/12/07 07:32:50;;;;;;;33.58;13.95;;;-7.00;99.90;;;;;;4938892;29;20279;-94
2023/12/07 07:35:18;;;;;;;31.13;13.45;;;-7.00;99.90;;;;;;4938523;29;20954;-95
2023/12/07 07:37:45;;;;;;;32.65;12.48;;;-7.10;99.90;;;;;;4938581;29;20192;-94
2023/12/07 07:40:13;;;;;;;31.05;11.88;;;-7.10;99.90;;;;;;4938978;29;20303;-95
2023/12/07 07:42:41;;;;;;;29.58;12.30;;;-7.10;99.90;;;;;;4920853;29;20244;-95
2023/12/07 07:45:09;;;;;;;27.83;10.73;;;-7.10;99.90;;;;;;4919964;29;20268;-96
2023/12/07 07:47:37;;;;;;;30.77;12.95;;;-7.10;99.90;;;;;;4919973;29;20197;-95
2023/12/07 07:50:05;;;;;;;30.85;13.65;;;-7.00;99.90;;;;;;4922494;29;20193;-94
2023/12/07 07:52:34;;;;;;;32.60;11.75;;;-6.90;99.90;;;;;;4954793;28;20275;-95
2023/12/07 07:55:04;;;;;;;31.98;11.75;;;-6.90;99.90;;;;;;4954941;28;20598;-96
2023/12/07 07:57:32;;;;;;;28.58;10.25;;;-6.90;99.90;;;;;;4951729;29;20211;-95
2023/12/07 07:59:59;;;;;;;29.30;14.27;;;-7.10;99.90;;;;;;4942159;29;20291;-94
2023/12/07 08:02:28;;;;;;;32.65;12.30;;;-7.00;99.90;;;;;;4947888;29;20292;-95
2023/12/07 08:04:55;;;;;;;30.92;11.63;;;-7.00;99.90;;;;;;4955362;29;20650;-95
2023/12/07 08:07:23;;;;;;;28.02;10.88;;;-7.00;99.90;;;;;;4955198;29;20271;-95
2023/12/07 08:09:51;;;;;;;29.38;12.05;;;-7.00;99.90;;;;;;4970822;28;20197;-94
2023/12/07 08:12:18;;;;;;;35.70;13.15;;;-7.00;99.90;;;;;;4923245;29;20285;-95
2023/12/07 08:14:48;;;;;;;26.27;12.27;;;-6.90;99.90;;;;;;4923381;29;20201;-94
2023/12/07 08:17:16;;;;;;;29.13;11.05;;;-6.90;99.90;;;;;;4923544;29;20205;-96
2023/12/07 08:19:43;;;;;;;27.45;11.23;;;-6.90;99.90;;;;;;4922802;29;20201;-95
2023/12/07 08:22:11;;;;;;;26.20;10.60;;;-7.00;99.90;;;;;;4967205;28;20212;-95
2023/12/07 08:24:41;;;;;;;32.80;11.25;;;-7.00;99.90;;;;;;4958145;29;20214;-94
2023/12/07 08:27:11;;;;;;;28.63;11.35;;;-7.00;99.90;;;;;;4958372;28;20193;-95
2023/12/07 08:29:38;;;;;;;29.23;12.13;;;-7.00;99.90;;;;;;4957707;28;20189;-95
2023/12/07 08:32:06;;;;;;;27.08;10.32;;;-7.00;99.90;;;;;;4942188;29;20228;-96
2023/12/07 08:34:33;;;;;;;30.40;11.68;;;-7.00;99.90;;;;;;4942237;29;20316;-95
2023/12/07 08:37:03;;;;;;;28.92;10.23;;;-7.00;99.90;;;;;;4973259;28;20192;-95
2023/12/07 08:39:30;;;;;;;28.70;10.68;;;-6.90;99.90;;;;;;4942021;29;20552;-95
2023/12/07 08:41:57;;;;;;;29.55;10.45;;;-6.90;99.90;;;;;;4973596;28;20279;-95
2023/12/07 08:44:25;;;;;;;26.77;10.68;;;-7.10;99.90;;;;;;4941796;29;20216;-95
2023/12/07 08:46:52;;;;;;;22.95;10.52;;;-7.10;99.90;;;;;;4973613;28;20189;-94
2023/12/07 08:49:20;;;;;;;25.25;9.95;;;-7.00;99.90;;;;;;4941897;29;20284;-95
2023/12/07 08:51:47;;;;;;;24.25;9.88;;;-7.00;99.90;;;;;;4941980;29;20593;-95
2023/12/07 08:54:36;;;;;;;29.67;10.35;;;-6.90;99.90;;;;;;4944318;29;20189;-96
2023/12/07 08:57:03;;;;;;;21.17;10.27;;;-6.70;99.90;;;;;;4970945;28;20200;-95
2023/12/07 08:59:31;;;;;;;27.20;10.82;;;-6.90;99.90;;;;;;4941648;29;20605;-95
2023/12/07 09:01:58;;;;;;;23.25;10.65;;;-7.00;99.90;;;;;;4937833;29;21098;-95
2023/12/07 09:04:27;;;;;;;24.88;10.32;;;-6.80;99.90;;;;;;4938117;29;20193;-95
2023/12/07 09:06:54;;;;;;;24.73;10.07;;;-6.80;99.90;;;;;;4937510;29;20223;-95
2023/12/07 09:09:23;;;;;;;25.90;10.77;;;-6.80;99.90;;;;;;4937821;29;20245;-94
2023/12/07 09:11:51;;;;;;;26.38;9.95;;;-6.90;99.90;;;;;;4938456;29;20607;-95
2023/12/07 09:14:19;;;;;;;23.73;9.30;;;-6.80;99.90;;;;;;4953701;29;20770;-95
2023/12/07 09:16:46;;;;;;;26.45;10.23;;;-6.70;99.90;;;;;;4953559;29;20197;-94
2023/12/07 09:19:14;;;;;;;22.80;9.13;;;-6.70;99.90;;;;;;4937845;29;20197;-95
2023/12/07 09:21:42;;;;;;;27.95;9.73;;;-6.70;99.90;;;;;;4921990;29;20214;-94
2023/12/07 09:24:09;;;;;;;23.17;9.15;;;-6.80;99.90;;;;;;4922192;29;20610;-94
2023/12/07 09:26:37;;;;;;;26.13;12.65;;;-6.70;99.90;;;;;;4921820;29;20190;-92
2023/12/07 09:29:05;;;;;;;26.50;9.80;;;-6.80;99.90;;;;;;4943570;28;20228;-95
2023/12/07 09:31:32;;;;;;;23.77;10.68;;;-6.60;99.90;;;;;;4957189;29;20188;-94
2023/12/07 09:34:00;;;;;;;23.17;9.38;;;-6.80;99.90;;;;;;4972865;28;20204;-95
2023/12/07 09:36:39;;;;;;;23.02;8.48;;;-6.80;99.90;;;;;;4958424;28;20192;-94
2023/12/07 09:39:06;;;;;;;22.23;8.55;;;-6.70;99.90;;;;;;4972873;28;20204;-94
2023/12/07 09:41:34;;;;;;;22.13;9.80;;;-6.70;99.90;;;;;;4972455;28;20229;-95
2023/12/07 09:44:01;;;;;;;29.08;10.38;;;-6.70;99.90;;;;;;4943788;28;20607;-95
2023/12/07 09:46:29;;;;;;;21.27;8.32;;;-6.70;99.90;;;;;;4922197;29;20216;-94
2023/12/07 09:48:57;;;;;;;26.73;9.65;;;-6.70;99.90;;;;;;4937398;29;20189;-93
2023/12/07 09:51:26;;;;;;;20.83;9.48;;;-6.60;99.90;;;;;;4972273;28;20192;-94
2023/12/07 09:53:55;;;;;;;21.20;8.38;;;-6.60;99.90;;;;;;4952862;29;20264;-93
2023/12/07 09:56:23;;;;;;;24.58;10.13;;;-6.70;99.90;;;;;;4920735;29;20208;-93
2023/12/07 09:58:52;;;;;;;24.08;10.05;;;-6.60;99.90;;;;;;4921443;29;20216;-93
2023/12/07 10:01:19;;;;;;;24.80;10.93;;;-6.70;99.90;;;;;;4921197;29;20205;-94
2023/12/07 10:03:48;;;;;;;25.02;10.48;;;-6.60;99.90;;;;;;4922359;29;20193;-93
2023/12/07 10:06:15;;;;;;;23.80;9.15;;;-6.60;99.90;;;;;;4952669;28;20212;-94
2023/12/07 10:08:46;;;;;;;21.48;9.00;;;-6.70;99.90;;;;;;4921525;29;20198;-93
2023/12/07 10:11:15;;;;;;;21.55;9.30;;;-6.70;99.90;;;;;;4921534;29;20252;-93
2023/12/07 10:13:42;;;;;;;22.38;9.18;;;-6.70;99.90;;;;;;4921209;29;20190;-94
2023/12/07 10:16:16;;;;;;;23.00;10.27;;;-6.70;99.90;;;;;;4938366;29;20193;-93
2023/12/07 10:18:43;;;;;;;24.90;9.65;;;-6.70;99.90;;;;;;4939348;29;20652;-93
2023/12/07 10:21:12;;;;;;;26.10;9.73;;;-6.60;99.90;;;;;;4955823;28;20622;-93
2023/12/07 10:23:47;;;;;;;24.77;9.90;;;-6.60;99.90;;;;;;4955729;29;20185;-93
2023/12/07 10:26:19;;;;;;;22.67;9.00;;;-6.60;99.90;;;;;;4940176;29;20872;-94
2023/12/07 10:28:54;;;;;;;21.92;9.32;;;-6.60;99.90;;;;;;4930509;29;20191;-94
2023/12/07 10:31:23;;;;;;;22.55;8.35;;;-6.60;99.90;;;;;;4955994;28;20184;-93
2023/12/07 10:33:51;;;;;;;22.83;8.95;;;-6.60;99.90;;;;;;4942559;29;20216;-94
2023/12/07 10:36:19;;;;;;;21.60;9.35;;;-6.40;99.90;;;;;;4939980;29;20196;-91
2023/12/07 10:38:50;;;;;;;22.38;9.00;;;-6.50;99.90;;;;;;4940001;29;20193;-93
2023/12/07 10:41:23;;;;;;;22.88;8.95;;;-6.60;99.90;;;;;;4938267;29;20231;-94
2023/12/07 10:44:00;;;;;;;26.33;9.57;;;-6.50;99.90;;;;;;4940760;29;20193;-92
2023/12/07 10:46:29;;;;;;;20.52;10.10;;;-6.40;99.90;;;;;;4935644;29;20201;-93
2023/12/07 10:49:01;;;;;;;17.33;8.65;;;-6.40;99.90;;;;;;4936677;29;20185;-93
2023/12/07 10:51:41;;;;;;;19.98;7.93;;;-6.40;99.90;;;;;;4935935;29;20754;-91
2023/12/07 10:54:13;;;;;;;15.73;7.57;;;-6.30;99.90;;;;;;4951990;29;20719;-93
2023/12/07 10:56:44;;;;;;;15.25;6.40;;;-6.20;99.90;;;;;;4952088;29;20248;-93
2023/12/07 10:59:13;;;;;;;19.02;7.75;;;-6.20;99.90;;;;;;4951800;29;20877;-92
2023/12/07 11:01:57;;;;;;;19.73;8.05;;;-6.20;99.90;;;;;;4964396;28;20778;-93
2023/12/07 11:04:26;;;;;;;22.23;7.40;;;-6.20;99.90;;;;;;4936062;29;20346;-92
2023/12/07 11:06:59;;;;;;;17.63;7.55;;;-6.20;99.90;;;;;;4951490;29;20201;-93
2023/12/07 11:09:33;;;;;;;17.95;7.18;;;-6.20;99.90;;;;;;4936151;29;20190;-92
2023/12/07 11:12:18;;;;;;;20.95;7.80;;;-6.20;99.90;;;;;;4951738;29;20225;-92
2023/12/07 11:14:46;;;;;;;25.73;9.73;;;-6.20;99.90;;;;;;4951938;29;20241;-93
2023/12/07 11:17:16;;;;;;;16.05;7.00;;;-6.20;99.90;;;;;;4967447;28;20200;-95
2023/12/07 11:19:46;;;;;;;20.15;7.18;;;-6.20;99.90;;;;;;4948814;29;20193;-93
2023/12/07 11:22:17;;;;;;;16.70;6.43;;;-6.10;99.90;;;;;;4970511;28;20216;-93
2023/12/07 11:25:00;;;;;;;18.83;8.10;;;-6.10;99.90;;;;;;4954932;29;20674;-92
2023/12/07 11:27:38;;;;;;;17.85;7.63;;;-6.20;99.90;;;;;;4969614;28;20193;-93
2023/12/07 11:30:09;;;;;;;23.80;9.05;;;-6.10;99.90;;;;;;4939293;29;20204;-92
2023/12/07 11:32:39;;;;;;;15.65;6.78;;;-6.10;99.90;;;;;;4954818;29;20193;-93
2023/12/07 11:35:13;;;;;;;19.08;8.65;;;-6.20;99.90;;;;;;4955382;28;20214;-92
2023/12/07 11:38:07;;;;;;;20.67;8.38;;;-6.10;99.90;;;;;;4954930;28;20215;-92
2023/12/07 11:40:40;;;;;;;22.05;8.63;;;-6.20;99.90;;;;;;4939545;28;20189;-92
2023/12/07 11:43:30;;;;;;;19.58;8.13;;;-6.20;99.90;;;;;;4936764;28;20212;-93
2023/12/07 11:46:00;;;;;;;20.42;8.85;;;-6.20;99.90;;;;;;4937928;29;20189;-93
2023/12/07 11:48:30;;;;;;;19.00;7.78;;;-6.20;99.90;;;;;;4945128;28;20180;-92
2023/12/07 11:51:00;;;;;;;18.50;8.00;;;-6.30;99.90;;;;;;4975524;28;20176;-92
2023/12/07 11:53:34;;;;;;;18.17;7.93;;;-6.20;99.90;;;;;;4958329;28;20220;-92
2023/12/07 11:56:08;;;;;;;20.55;7.72;;;-6.20;99.90;;;;;;4957684;28;20226;-93
2023/12/07 11:58:37;;;;;;;19.77;7.78;;;-6.20;99.90;;;;;;4958002;28;20725;-94
2023/12/07 12:01:08;;;;;;;20.85;7.68;;;-6.30;99.90;;;;;;4956536;28;20793;-92
2023/12/07 12:03:37;;;;;;;19.02;7.75;;;-6.30;99.90;;;;;;4924838;28;20193;-93
2023/12/07 12:06:07;;;;;;;20.48;8.65;;;-6.30;99.90;;;;;;4945788;28;20254;-93
2023/12/07 12:08:35;;;;;;;21.55;7.65;;;-6.30;99.90;;;;;;4926641;29;20192;-92
2023/12/07 12:11:04;;;;;;;17.65;7.60;;;-6.20;99.90;;;;;;4925399;28;20211;-93
2023/12/07 12:13:36;;;;;;;19.98;8.88;;;-6.30;99.90;;;;;;4957117;28;20196;-93
2023/12/07 12:16:04;;;;;;;22.40;8.25;;;-6.30;99.90;;;;;;4957971;28;20173;-93
2023/12/07 12:18:34;;;;;;;24.80;9.70;;;-6.30;99.90;;;;;;4943447;28;20204;-93
2023/12/07 12:21:03;;;;;;;22.27;8.40;;;-6.30;99.90;;;;;;4957575;28;20199;-93
2023/12/07 12:23:30;;;;;;;21.50;8.25;;;-6.20;99.90;;;;;;4957479;28;20184;-93
2023/12/07 12:25:58;;;;;;;26.13;10.52;;;-6.40;99.90;;;;;;4973759;28;20277;-93
2023/12/07 12:28:26;;;;;;;17.75;7.75;;;-6.40;99.90;;;;;;4969972;28;20200;-93
2023/12/07 12:30:55;;;;;;;21.38;8.88;;;-6.50;99.90;;;;;;4938620;29;20244;-93
2023/12/07 12:33:22;;;;;;;18.25;8.35;;;-6.30;99.90;;;;;;4955431;29;20196;-94
2023/12/07 12:36:02;;;;;;;23.25;8.30;;;-6.50;99.90;;;;;;4943684;28;20188;-93
2023/12/07 12:38:29;;;;;;;18.60;8.70;;;-6.60;99.90;;;;;;4960437;28;20196;-93